sensor_id;sensor_type;location;lat;lon;timestamp;pressure;altitude;pressure_sealevel;temperature;humidity
8286;BME280;4181;43.416;24.598;2022-08-01T00:01:43;99693.09;;;23.97;100.00
8286;BME280;4181;43.416;24.598;2022-08-01T00:04:09;99701.59;;;24.13;100.00
8286;BME280;4181;43.416;24.598;2022-08-01T00:06:35;99694.66;;;24.07;100.00
8286;BME280;4181;43.416;24.598;2022-08-01T00:09:00;99706.13;;;24.05;100.00
8286;BME280;4181;43.416;24.598;2022-08-01T00:11:26;99698.13;;;24.04;100.00
8286;BME280;4181;43.416;24.598;2022-08-01T00:13:52;99704.88;;;24.03;100.00
8286;BME280;4181;43.416;24.598;2022-08-01T00:16:18;99695.78;;;23.94;100.00
8286;BME280;4181;43.416;24.598;2022-08-01T00:18:43;99703.22;;;24.14;100.00
8286;BME280;4181;43.416;24.598;2022-08-01T00:21:10;99696.25;;;24.20;100.00
8286;BME280;4181;43.416;24.598;2022-08-01T00:23:35;99692.28;;;24.21;100.00
8286;BME280;4181;43.416;24.598;2022-08-01T00:26:01;99701.25;;;24.14;100.00
8286;BME280;4181;43.416;24.598;2022-08-01T00:28:27;99695.78;;;24.06;100.00
8286;BME280;4181;43.416;24.598;2022-08-01T00:30:53;99698.34;;;23.99;100.00
8286;BME280;4181;43.416;24.598;2022-08-01T00:33:18;99700.56;;;23.81;100.00
8286;BME280;4181;43.416;24.598;2022-08-01T00:35:43;99695.81;;;23.82;100.00
8286;BME280;4181;43.416;24.598;2022-08-01T00:38:09;99690.25;;;23.82;100.00
8286;BME280;4181;43.416;24.598;2022-08-01T00:40:36;99693.03;;;23.82;100.00
8286;BME280;4181;43.416;24.598;2022-08-01T00:43:01;99664.94;;;23.74;100.00
8286;BME280;4181;43.416;24.598;2022-08-01T00:45:27;99669.78;;;23.65;100.00
8286;BME280;4181;43.416;24.598;2022-08-01T00:47:52;99680.03;;;23.61;100.00
8286;BME280;4181;43.416;24.598;2022-08-01T00:50:18;99678.16;;;23.53;100.00
8286;BME280;4181;43.416;24.598;2022-08-01T00:52:44;99666.81;;;23.46;100.00
8286;BME280;4181;43.416;24.598;2022-08-01T00:55:10;99664.81;;;23.47;100.00
8286;BME280;4181;43.416;24.598;2022-08-01T00:57:37;99676.53;;;23.52;100.00
8286;BME280;4181;43.416;24.598;2022-08-01T01:00:04;99676.53;;;23.52;100.00
8286;BME280;4181;43.416;24.598;2022-08-01T01:02:31;99668.53;;;23.51;100.00
8286;BME280;4181;43.416;24.598;2022-08-01T01:04:57;99656.00;;;23.57;100.00
8286;BME280;4181;43.416;24.598;2022-08-01T01:12:51;99674.47;;;23.61;100.00
8286;BME280;4181;43.416;24.598;2022-08-01T01:15:22;99667.38;;;23.64;100.00
8286;BME280;4181;43.416;24.598;2022-08-01T01:20:26;99665.63;;;23.59;100.00
8286;BME280;4181;43.416;24.598;2022-08-01T01:25:51;99662.63;;;23.64;100.00
8286;BME280;4181;43.416;24.598;2022-08-01T01:30:58;99665.41;;;23.76;100.00
8286;BME280;4181;43.416;24.598;2022-08-01T01:33:26;99654.59;;;23.75;100.00
8286;BME280;4181;43.416;24.598;2022-08-01T01:36:03;99649.94;;;23.67;100.00
8286;BME280;4181;43.416;24.598;2022-08-01T01:38:34;99653.66;;;23.71;100.00
8286;BME280;4181;43.416;24.598;2022-08-01T01:41:02;99651.81;;;23.63;100.00
8286;BME280;4181;43.416;24.598;2022-08-01T01:43:29;99648.00;;;23.55;100.00
8286;BME280;4181;43.416;24.598;2022-08-01T01:45:56;99641.72;;;23.58;100.00
8286;BME280;4181;43.416;24.598;2022-08-01T01:48:23;99635.34;;;23.58;100.00
8286;BME280;4181;43.416;24.598;2022-08-01T01:50:49;99635.69;;;23.56;100.00
8286;BME280;4181;43.416;24.598;2022-08-01T01:53:19;99635.47;;;23.61;100.00
8286;BME280;4181;43.416;24.598;2022-08-01T01:55:46;99629.78;;;23.58;100.00
8286;BME280;4181;43.416;24.598;2022-08-01T01:58:13;99630.47;;;23.55;100.00
8286;BME280;4181;43.416;24.598;2022-08-01T02:00:42;99628.03;;;23.53;100.00
8286;BME280;4181;43.416;24.598;2022-08-01T02:03:10;99633.16;;;23.39;100.00
8286;BME280;4181;43.416;24.598;2022-08-01T02:05:37;99628.41;;;23.28;100.00
8286;BME280;4181;43.416;24.598;2022-08-01T02:08:04;99625.22;;;23.17;100.00
8286;BME280;4181;43.416;24.598;2022-08-01T02:10:32;99642.03;;;23.21;100.00
8286;BME280;4181;43.416;24.598;2022-08-01T02:12:59;99639.03;;;23.26;100.00
8286;BME280;4181;43.416;24.598;2022-08-01T02:15:27;99634.94;;;23.23;100.00
8286;BME280;4181;43.416;24.598;2022-08-01T02:17:56;99629.38;;;23.23;100.00
8286;BME280;4181;43.416;24.598;2022-08-01T02:20:22;99634.63;;;23.37;100.00
8286;BME280;4181;43.416;24.598;2022-08-01T02:22:51;99640.78;;;23.42;100.00
8286;BME280;4181;43.416;24.598;2022-08-01T02:25:36;99632.09;;;23.56;100.00
8286;BME280;4181;43.416;24.598;2022-08-01T02:28:10;99631.03;;;23.60;100.00
8286;BME280;4181;43.416;24.598;2022-08-01T02:30:42;99629.06;;;23.61;100.00
8286;BME280;4181;43.416;24.598;2022-08-01T02:33:16;99625.34;;;23.69;100.00
8286;BME280;4181;43.416;24.598;2022-08-01T02:35:47;99626.41;;;23.64;100.00
8286;BME280;4181;43.416;24.598;2022-08-01T02:38:14;99630.69;;;23.62;100.00
8286;BME280;4181;43.416;24.598;2022-08-01T02:40:43;99619.22;;;23.51;100.00
8286;BME280;4181;43.416;24.598;2022-08-01T02:43:12;99621.97;;;23.63;100.00
8286;BME280;4181;43.416;24.598;2022-08-01T02:45:42;99603.53;;;23.47;100.00
8286;BME280;4181;43.416;24.598;2022-08-01T02:48:14;99614.34;;;23.48;100.00
8286;BME280;4181;43.416;24.598;2022-08-01T02:50:45;99611.47;;;23.45;100.00
8286;BME280;4181;43.416;24.598;2022-08-01T02:53:13;99615.75;;;23.42;100.00
8286;BME280;4181;43.416;24.598;2022-08-01T02:55:40;99620.97;;;23.44;100.00
8286;BME280;4181;43.416;24.598;2022-08-01T02:58:08;99621.91;;;23.48;100.00
8286;BME280;4181;43.416;24.598;2022-08-01T03:00:35;99622.00;;;23.51;100.00
8286;BME280;4181;43.416;24.598;2022-08-01T03:03:03;99620.38;;;23.50;100.00
8286;BME280;4181;43.416;24.598;2022-08-01T03:05:32;99627.34;;;23.32;100.00
8286;BME280;4181;43.416;24.598;2022-08-01T03:07:59;99622.47;;;23.29;100.00
8286;BME280;4181;43.416;24.598;2022-08-01T03:10:28;99623.38;;;23.33;100.00
8286;BME280;4181;43.416;24.598;2022-08-01T03:12:55;99612.94;;;23.30;100.00
8286;BME280;4181;43.416;24.598;2022-08-01T03:15:23;99622.84;;;23.40;100.00
8286;BME280;4181;43.416;24.598;2022-08-01T03:17:51;99622.25;;;23.46;100.00
8286;BME280;4181;43.416;24.598;2022-08-01T03:20:20;99608.09;;;23.51;100.00
8286;BME280;4181;43.416;24.598;2022-08-01T03:22:50;99631.75;;;23.57;100.00
8286;BME280;4181;43.416;24.598;2022-08-01T03:25:18;99620.59;;;23.45;100.00
8286;BME280;4181;43.416;24.598;2022-08-01T03:27:51;99607.28;;;23.51;100.00
8286;BME280;4181;43.416;24.598;2022-08-01T03:30:20;99619.78;;;23.69;100.00
8286;BME280;4181;43.416;24.598;2022-08-01T03:32:46;99623.25;;;23.78;100.00
8286;BME280;4181;43.416;24.598;2022-08-01T03:35:12;99616.25;;;23.84;100.00
8286;BME280;4181;43.416;24.598;2022-08-01T03:37:49;99616.16;;;23.80;100.00
8286;BME280;4181;43.416;24.598;2022-08-01T03:40:25;99631.69;;;24.06;100.00
8286;BME280;4181;43.416;24.598;2022-08-01T03:43:05;99627.94;;;24.14;100.00
8286;BME280;4181;43.416;24.598;2022-08-01T03:45:38;99603.09;;;24.09;100.00
8286;BME280;4181;43.416;24.598;2022-08-01T03:48:09;99626.44;;;24.44;100.00
8286;BME280;4181;43.416;24.598;2022-08-01T03:50:37;99632.94;;;24.48;100.00
8286;BME280;4181;43.416;24.598;2022-08-01T03:53:05;99627.22;;;24.56;100.00
8286;BME280;4181;43.416;24.598;2022-08-01T03:55:32;99611.34;;;24.72;100.00
8286;BME280;4181;43.416;24.598;2022-08-01T03:58:00;99621.72;;;24.87;100.00
8286;BME280;4181;43.416;24.598;2022-08-01T04:00:27;99620.16;;;24.74;100.00
8286;BME280;4181;43.416;24.598;2022-08-01T04:02:53;99626.94;;;24.89;100.00
8286;BME280;4181;43.416;24.598;2022-08-01T04:05:19;99620.56;;;25.04;100.00
8286;BME280;4181;43.416;24.598;2022-08-01T04:07:49;99627.50;;;25.10;100.00
8286;BME280;4181;43.416;24.598;2022-08-01T04:10:24;99629.66;;;25.17;100.00
8286;BME280;4181;43.416;24.598;2022-08-01T04:12:50;99624.78;;;25.14;100.00
8286;BME280;4181;43.416;24.598;2022-08-01T04:15:16;99608.22;;;25.05;100.00
8286;BME280;4181;43.416;24.598;2022-08-01T04:17:41;99627.41;;;25.22;100.00
8286;BME280;4181;43.416;24.598;2022-08-01T04:20:07;99630.81;;;25.16;100.00
8286;BME280;4181;43.416;24.598;2022-08-01T04:22:33;99616.50;;;25.33;100.00
8286;BME280;4181;43.416;24.598;2022-08-01T04:25:01;99620.59;;;25.35;100.00
8286;BME280;4181;43.416;24.598;2022-08-01T04:27:32;99626.97;;;25.20;100.00
8286;BME280;4181;43.416;24.598;2022-08-01T04:30:00;99626.97;;;25.36;100.00
8286;BME280;4181;43.416;24.598;2022-08-01T04:32:29;99637.31;;;25.51;100.00
8286;BME280;4181;43.416;24.598;2022-08-01T04:34:57;99623.63;;;25.61;100.00
8286;BME280;4181;43.416;24.598;2022-08-01T04:37:25;99628.09;;;25.81;100.00
8286;BME280;4181;43.416;24.598;2022-08-01T04:39:52;99620.56;;;25.85;100.00
8286;BME280;4181;43.416;24.598;2022-08-01T04:42:19;99638.03;;;25.98;100.00
8286;BME280;4181;43.416;24.598;2022-08-01T04:44:45;99614.13;;;26.00;100.00
8286;BME280;4181;43.416;24.598;2022-08-01T04:47:11;99615.88;;;26.24;100.00
8286;BME280;4181;43.416;24.598;2022-08-01T04:49:37;99611.63;;;26.30;100.00
8286;BME280;4181;43.416;24.598;2022-08-01T04:52:03;99624.25;;;26.62;100.00
8286;BME280;4181;43.416;24.598;2022-08-01T04:54:30;99634.53;;;26.74;100.00
8286;BME280;4181;43.416;24.598;2022-08-01T04:57:00;99631.88;;;27.03;100.00
8286;BME280;4181;43.416;24.598;2022-08-01T04:59:27;99625.81;;;27.24;100.00
8286;BME280;4181;43.416;24.598;2022-08-01T05:02:11;99612.72;;;27.28;100.00
8286;BME280;4181;43.416;24.598;2022-08-01T05:04:38;99606.53;;;27.19;100.00
8286;BME280;4181;43.416;24.598;2022-08-01T05:07:13;99598.72;;;27.28;100.00
8286;BME280;4181;43.416;24.598;2022-08-01T05:09:41;99610.78;;;27.32;100.00
8286;BME280;4181;43.416;24.598;2022-08-01T05:12:08;99614.88;;;27.61;100.00
8286;BME280;4181;43.416;24.598;2022-08-01T05:14:34;99620.47;;;27.61;100.00
8286;BME280;4181;43.416;24.598;2022-08-01T05:17:04;99613.72;;;27.65;100.00
8286;BME280;4181;43.416;24.598;2022-08-01T05:19:35;99610.06;;;27.87;100.00
8286;BME280;4181;43.416;24.598;2022-08-01T05:22:02;99614.72;;;28.02;100.00
8286;BME280;4181;43.416;24.598;2022-08-01T05:24:30;99608.78;;;28.07;100.00
8286;BME280;4181;43.416;24.598;2022-08-01T05:26:57;99604.72;;;27.79;100.00
8286;BME280;4181;43.416;24.598;2022-08-01T05:29:23;99600.97;;;27.94;100.00
8286;BME280;4181;43.416;24.598;2022-08-01T05:31:49;99610.59;;;27.96;100.00
8286;BME280;4181;43.416;24.598;2022-08-01T05:34:15;99604.38;;;28.10;100.00
8286;BME280;4181;43.416;24.598;2022-08-01T05:36:41;99598.56;;;28.25;100.00
8286;BME280;4181;43.416;24.598;2022-08-01T05:39:07;99599.25;;;28.48;100.00
8286;BME280;4181;43.416;24.598;2022-08-01T05:41:33;99601.53;;;28.73;100.00
8286;BME280;4181;43.416;24.598;2022-08-01T05:43:59;99594.44;;;28.82;100.00
8286;BME280;4181;43.416;24.598;2022-08-01T05:46:24;99599.72;;;28.87;100.00
8286;BME280;4181;43.416;24.598;2022-08-01T05:48:50;99610.63;;;28.96;100.00
8286;BME280;4181;43.416;24.598;2022-08-01T05:51:15;99598.41;;;29.18;100.00
8286;BME280;4181;43.416;24.598;2022-08-01T05:53:41;99588.09;;;29.29;100.00
8286;BME280;4181;43.416;24.598;2022-08-01T05:56:09;99607.75;;;29.29;100.00
8286;BME280;4181;43.416;24.598;2022-08-01T05:58:35;99603.38;;;29.35;100.00
8286;BME280;4181;43.416;24.598;2022-08-01T06:01:00;99606.19;;;29.35;100.00
8286;BME280;4181;43.416;24.598;2022-08-01T06:03:26;99608.50;;;29.69;100.00
8286;BME280;4181;43.416;24.598;2022-08-01T06:05:56;99615.44;;;29.86;100.00
8286;BME280;4181;43.416;24.598;2022-08-01T06:08:21;99601.94;;;30.13;100.00
8286;BME280;4181;43.416;24.598;2022-08-01T06:10:47;99600.69;;;30.10;100.00
8286;BME280;4181;43.416;24.598;2022-08-01T06:13:12;99588.59;;;29.99;100.00
8286;BME280;4181;43.416;24.598;2022-08-01T06:15:38;99599.00;;;29.92;100.00
8286;BME280;4181;43.416;24.598;2022-08-01T06:18:04;99580.06;;;29.85;100.00
8286;BME280;4181;43.416;24.598;2022-08-01T06:20:30;99607.88;;;29.97;100.00
8286;BME280;4181;43.416;24.598;2022-08-01T06:22:56;99598.88;;;29.70;100.00
8286;BME280;4181;43.416;24.598;2022-08-01T06:25:21;99614.09;;;29.69;100.00
8286;BME280;4181;43.416;24.598;2022-08-01T06:27:47;99585.31;;;29.90;100.00
8286;BME280;4181;43.416;24.598;2022-08-01T06:30:13;99591.06;;;30.15;100.00
8286;BME280;4181;43.416;24.598;2022-08-01T06:32:38;99589.19;;;30.36;100.00
8286;BME280;4181;43.416;24.598;2022-08-01T06:35:04;99590.81;;;30.48;100.00
8286;BME280;4181;43.416;24.598;2022-08-01T06:37:31;99594.38;;;30.27;100.00
8286;BME280;4181;43.416;24.598;2022-08-01T06:40:04;99597.69;;;30.47;100.00
8286;BME280;4181;43.416;24.598;2022-08-01T06:42:30;99590.34;;;30.28;100.00
8286;BME280;4181;43.416;24.598;2022-08-01T06:45:10;99594.88;;;30.50;100.00
8286;BME280;4181;43.416;24.598;2022-08-01T06:47:39;99587.25;;;30.65;100.00
8286;BME280;4181;43.416;24.598;2022-08-01T06:50:07;99588.91;;;30.69;100.00
8286;BME280;4181;43.416;24.598;2022-08-01T06:52:34;99594.59;;;30.94;100.00
8286;BME280;4181;43.416;24.598;2022-08-01T06:54:59;99589.28;;;30.71;100.00
8286;BME280;4181;43.416;24.598;2022-08-01T06:57:25;99571.25;;;30.86;100.00
8286;BME280;4181;43.416;24.598;2022-08-01T06:59:51;99575.28;;;31.07;100.00
8286;BME280;4181;43.416;24.598;2022-08-01T07:02:16;99572.47;;;30.99;100.00
8286;BME280;4181;43.416;24.598;2022-08-01T07:04:42;99575.31;;;31.21;100.00
8286;BME280;4181;43.416;24.598;2022-08-01T07:07:08;99559.19;;;31.28;100.00
8286;BME280;4181;43.416;24.598;2022-08-01T07:09:33;99548.75;;;31.43;100.00
8286;BME280;4181;43.416;24.598;2022-08-01T07:11:59;99558.38;;;31.56;100.00
8286;BME280;4181;43.416;24.598;2022-08-01T07:14:25;99554.75;;;31.66;100.00
8286;BME280;4181;43.416;24.598;2022-08-01T07:16:50;99551.09;;;31.76;100.00
8286;BME280;4181;43.416;24.598;2022-08-01T07:19:17;99561.22;;;31.63;100.00
8286;BME280;4181;43.416;24.598;2022-08-01T07:21:42;99559.16;;;31.67;100.00
8286;BME280;4181;43.416;24.598;2022-08-01T07:24:10;99555.09;;;31.75;100.00
8286;BME280;4181;43.416;24.598;2022-08-01T07:26:36;99547.88;;;31.88;100.00
8286;BME280;4181;43.416;24.598;2022-08-01T07:29:01;99550.28;;;31.93;100.00
8286;BME280;4181;43.416;24.598;2022-08-01T07:31:28;99554.28;;;31.92;100.00
8286;BME280;4181;43.416;24.598;2022-08-01T07:33:53;99556.69;;;32.00;100.00
8286;BME280;4181;43.416;24.598;2022-08-01T07:36:19;99547.38;;;32.10;100.00
8286;BME280;4181;43.416;24.598;2022-08-01T07:38:45;99545.25;;;32.32;100.00
8286;BME280;4181;43.416;24.598;2022-08-01T07:41:11;99535.13;;;32.45;100.00
8286;BME280;4181;43.416;24.598;2022-08-01T07:43:37;99547.69;;;32.27;100.00
8286;BME280;4181;43.416;24.598;2022-08-01T07:46:03;99547.75;;;32.16;100.00
8286;BME280;4181;43.416;24.598;2022-08-01T07:48:29;99559.00;;;32.23;100.00
8286;BME280;4181;43.416;24.598;2022-08-01T07:50:55;99549.78;;;32.12;100.00
8286;BME280;4181;43.416;24.598;2022-08-01T07:53:20;99551.34;;;32.20;100.00
8286;BME280;4181;43.416;24.598;2022-08-01T07:55:46;99541.22;;;32.40;100.00
8286;BME280;4181;43.416;24.598;2022-08-01T07:58:11;99549.63;;;32.54;100.00
8286;BME280;4181;43.416;24.598;2022-08-01T08:00:37;99552.75;;;32.67;100.00
8286;BME280;4181;43.416;24.598;2022-08-01T08:03:03;99537.88;;;32.63;100.00
8286;BME280;4181;43.416;24.598;2022-08-01T08:05:28;99531.16;;;32.25;100.00
8286;BME280;4181;43.416;24.598;2022-08-01T08:07:54;99544.56;;;32.07;100.00
8286;BME280;4181;43.416;24.598;2022-08-01T08:10:20;99560.66;;;32.17;100.00
8286;BME280;4181;43.416;24.598;2022-08-01T08:12:46;99554.13;;;32.41;100.00
8286;BME280;4181;43.416;24.598;2022-08-01T08:15:12;99540.34;;;32.50;100.00
8286;BME280;4181;43.416;24.598;2022-08-01T08:17:38;99557.56;;;32.73;100.00
8286;BME280;4181;43.416;24.598;2022-08-01T08:20:06;99549.88;;;32.74;100.00
8286;BME280;4181;43.416;24.598;2022-08-01T08:22:32;99549.81;;;32.84;100.00
8286;BME280;4181;43.416;24.598;2022-08-01T08:24:58;99540.88;;;32.96;100.00
8286;BME280;4181;43.416;24.598;2022-08-01T08:27:24;99543.41;;;32.73;100.00
8286;BME280;4181;43.416;24.598;2022-08-01T08:29:49;99557.53;;;32.77;100.00
8286;BME280;4181;43.416;24.598;2022-08-01T08:32:14;99532.50;;;32.75;100.00
8286;BME280;4181;43.416;24.598;2022-08-01T08:34:40;99529.50;;;33.03;100.00
8286;BME280;4181;43.416;24.598;2022-08-01T08:37:06;99544.00;;;33.09;100.00
8286;BME280;4181;43.416;24.598;2022-08-01T08:39:33;99552.88;;;33.11;100.00
8286;BME280;4181;43.416;24.598;2022-08-01T08:41:59;99549.53;;;33.26;100.00
8286;BME280;4181;43.416;24.598;2022-08-01T08:44:27;99540.50;;;33.38;100.00
8286;BME280;4181;43.416;24.598;2022-08-01T08:46:53;99549.78;;;33.46;100.00
8286;BME280;4181;43.416;24.598;2022-08-01T08:49:28;99552.88;;;33.59;100.00
8286;BME280;4181;43.416;24.598;2022-08-01T08:51:58;99557.56;;;33.72;100.00
8286;BME280;4181;43.416;24.598;2022-08-01T08:54:25;99561.59;;;33.75;100.00
8286;BME280;4181;43.416;24.598;2022-08-01T08:56:52;99550.59;;;33.80;100.00
8286;BME280;4181;43.416;24.598;2022-08-01T08:59:19;99547.53;;;33.68;100.00
8286;BME280;4181;43.416;24.598;2022-08-01T09:01:44;99553.34;;;33.50;100.00
8286;BME280;4181;43.416;24.598;2022-08-01T09:04:11;99544.31;;;33.66;100.00
8286;BME280;4181;43.416;24.598;2022-08-01T09:06:37;99549.91;;;33.73;100.00
8286;BME280;4181;43.416;24.598;2022-08-01T09:09:03;99548.88;;;33.56;100.00
8286;BME280;4181;43.416;24.598;2022-08-01T09:11:29;99548.94;;;33.86;100.00
8286;BME280;4181;43.416;24.598;2022-08-01T09:16:27;99539.88;;;34.02;100.00
8286;BME280;4181;43.416;24.598;2022-08-01T09:18:52;99527.81;;;33.98;100.00
8286;BME280;4181;43.416;24.598;2022-08-01T09:21:21;99530.28;;;33.89;100.00
8286;BME280;4181;43.416;24.598;2022-08-01T09:23:55;99529.78;;;34.01;100.00
8286;BME280;4181;43.416;24.598;2022-08-01T09:26:32;99543.56;;;33.99;100.00
8286;BME280;4181;43.416;24.598;2022-08-01T09:28:59;99532.69;;;33.94;100.00
8286;BME280;4181;43.416;24.598;2022-08-01T09:31:27;99526.91;;;34.04;100.00
8286;BME280;4181;43.416;24.598;2022-08-01T09:33:54;99525.03;;;33.91;100.00
8286;BME280;4181;43.416;24.598;2022-08-01T09:36:42;99522.09;;;34.01;100.00
8286;BME280;4181;43.416;24.598;2022-08-01T09:39:13;99526.19;;;34.27;100.00
8286;BME280;4181;43.416;24.598;2022-08-01T09:41:39;99511.25;;;34.26;100.00
8286;BME280;4181;43.416;24.598;2022-08-01T09:44:05;99515.94;;;34.10;100.00
8286;BME280;4181;43.416;24.598;2022-08-01T09:46:30;99506.84;;;34.22;100.00
8286;BME280;4181;43.416;24.598;2022-08-01T09:49:04;99527.91;;;34.21;100.00
8286;BME280;4181;43.416;24.598;2022-08-01T09:51:35;99527.78;;;34.01;100.00
8286;BME280;4181;43.416;24.598;2022-08-01T09:54:02;99524.16;;;33.97;100.00
8286;BME280;4181;43.416;24.598;2022-08-01T09:56:42;99526.06;;;34.07;100.00
8286;BME280;4181;43.416;24.598;2022-08-01T09:59:08;99522.97;;;33.98;100.00
8286;BME280;4181;43.416;24.598;2022-08-01T10:01:49;99520.66;;;34.20;100.00
8286;BME280;4181;43.416;24.598;2022-08-01T10:04:20;99522.19;;;33.94;100.00
8286;BME280;4181;43.416;24.598;2022-08-01T10:06:48;99514.94;;;33.93;100.00
8286;BME280;4181;43.416;24.598;2022-08-01T10:09:31;99522.91;;;34.32;100.00
8286;BME280;4181;43.416;24.598;2022-08-01T10:11:59;99500.94;;;34.43;100.00
8286;BME280;4181;43.416;24.598;2022-08-01T10:14:26;99506.22;;;34.41;100.00
8286;BME280;4181;43.416;24.598;2022-08-01T10:16:56;99515.00;;;34.50;100.00
8286;BME280;4181;43.416;24.598;2022-08-01T10:19:25;99504.22;;;34.38;100.00
8286;BME280;4181;43.416;24.598;2022-08-01T10:21:52;99516.31;;;34.38;100.00
8286;BME280;4181;43.416;24.598;2022-08-01T10:24:20;99517.22;;;34.32;100.00
8286;BME280;4181;43.416;24.598;2022-08-01T10:26:55;99507.53;;;34.33;100.00
8286;BME280;4181;43.416;24.598;2022-08-01T10:29:25;99505.34;;;34.14;100.00
8286;BME280;4181;43.416;24.598;2022-08-01T10:31:52;99503.41;;;34.07;100.00
8286;BME280;4181;43.416;24.598;2022-08-01T10:34:18;99506.50;;;34.20;100.00
8286;BME280;4181;43.416;24.598;2022-08-01T10:36:48;99505.38;;;34.44;100.00
8286;BME280;4181;43.416;24.598;2022-08-01T10:39:14;99513.25;;;34.60;100.00
8286;BME280;4181;43.416;24.598;2022-08-01T10:41:40;99504.03;;;34.52;100.00
8286;BME280;4181;43.416;24.598;2022-08-01T10:44:07;99498.34;;;34.22;100.00
8286;BME280;4181;43.416;24.598;2022-08-01T10:46:38;99515.25;;;34.29;100.00
8286;BME280;4181;43.416;24.598;2022-08-01T10:49:17;99507.91;;;34.35;100.00
8286;BME280;4181;43.416;24.598;2022-08-01T10:51:45;99504.97;;;34.42;100.00
8286;BME280;4181;43.416;24.598;2022-08-01T10:54:12;99482.75;;;34.37;100.00
8286;BME280;4181;43.416;24.598;2022-08-01T10:56:49;99489.38;;;34.27;100.00
8286;BME280;4181;43.416;24.598;2022-08-01T10:59:26;99498.94;;;34.40;100.00
8286;BME280;4181;43.416;24.598;2022-08-01T11:02:02;99500.94;;;34.43;100.00
8286;BME280;4181;43.416;24.598;2022-08-01T11:07:15;99492.59;;;34.59;100.00
8286;BME280;4181;43.416;24.598;2022-08-01T11:09:47;99479.88;;;34.40;100.00
8286;BME280;4181;43.416;24.598;2022-08-01T11:12:18;99493.88;;;34.55;100.00
8286;BME280;4181;43.416;24.598;2022-08-01T11:20:17;99473.91;;;34.88;100.00
8286;BME280;4181;43.416;24.598;2022-08-01T11:33:07;99473.16;;;34.84;100.00
8286;BME280;4181;43.416;24.598;2022-08-01T11:35:34;99465.94;;;34.80;100.00
8286;BME280;4181;43.416;24.598;2022-08-01T11:38:22;99468.34;;;34.81;100.00
8286;BME280;4181;43.416;24.598;2022-08-01T11:41:30;99463.72;;;34.68;100.00
8286;BME280;4181;43.416;24.598;2022-08-01T11:44:08;99463.91;;;34.80;100.00
8286;BME280;4181;43.416;24.598;2022-08-01T11:47:11;99450.41;;;34.88;100.00
8286;BME280;4181;43.416;24.598;2022-08-01T11:54:40;99464.00;;;34.20;100.00
8286;BME280;4181;43.416;24.598;2022-08-01T11:57:11;99460.59;;;34.02;100.00
8286;BME280;4181;43.416;24.598;2022-08-01T11:59:39;99476.91;;;33.57;100.00
8286;BME280;4181;43.416;24.598;2022-08-01T12:07:23;99466.59;;;33.74;100.00
8286;BME280;4181;43.416;24.598;2022-08-01T12:09:57;99478.63;;;33.48;100.00
8286;BME280;4181;43.416;24.598;2022-08-01T12:12:24;99481.72;;;33.19;100.00
8286;BME280;4181;43.416;24.598;2022-08-01T12:14:55;99465.00;;;33.32;100.00
8286;BME280;4181;43.416;24.598;2022-08-01T12:17:28;99463.56;;;33.58;100.00
8286;BME280;4181;43.416;24.598;2022-08-01T12:19:54;99469.22;;;33.58;100.00
8286;BME280;4181;43.416;24.598;2022-08-01T12:22:22;99463.06;;;33.66;100.00
8286;BME280;4181;43.416;24.598;2022-08-01T12:24:50;99465.53;;;33.61;100.00
8286;BME280;4181;43.416;24.598;2022-08-01T12:27:29;99457.56;;;33.86;100.00
8286;BME280;4181;43.416;24.598;2022-08-01T12:29:57;99442.09;;;33.94;100.00
8286;BME280;4181;43.416;24.598;2022-08-01T12:32:28;99440.22;;;34.14;100.00
8286;BME280;4181;43.416;24.598;2022-08-01T12:35:01;99447.22;;;34.32;100.00
8286;BME280;4181;43.416;24.598;2022-08-01T12:37:27;99428.88;;;34.40;100.00
8286;BME280;4181;43.416;24.598;2022-08-01T12:39:52;99425.47;;;34.26;100.00
8286;BME280;4181;43.416;24.598;2022-08-01T12:42:18;99423.66;;;34.39;100.00
8286;BME280;4181;43.416;24.598;2022-08-01T12:44:47;99431.72;;;34.40;100.00
8286;BME280;4181;43.416;24.598;2022-08-01T12:47:14;99436.44;;;34.24;100.00
8286;BME280;4181;43.416;24.598;2022-08-01T12:49:42;99433.63;;;33.94;100.00
8286;BME280;4181;43.416;24.598;2022-08-01T12:52:09;99446.97;;;33.60;100.00
8286;BME280;4181;43.416;24.598;2022-08-01T12:55:04;99457.38;;;33.29;100.00
8286;BME280;4181;43.416;24.598;2022-08-01T12:57:30;99439.50;;;33.39;100.00
8286;BME280;4181;43.416;24.598;2022-08-01T13:00:13;99434.09;;;33.52;100.00
8286;BME280;4181;43.416;24.598;2022-08-01T13:02:40;99443.59;;;33.34;100.00
8286;BME280;4181;43.416;24.598;2022-08-01T13:05:07;99432.72;;;33.29;100.00
8286;BME280;4181;43.416;24.598;2022-08-01T13:10:09;99425.25;;;33.50;100.00
8286;BME280;4181;43.416;24.598;2022-08-01T13:12:35;99416.91;;;33.35;100.00
8286;BME280;4181;43.416;24.598;2022-08-01T13:15:16;99424.72;;;33.24;100.00
8286;BME280;4181;43.416;24.598;2022-08-01T13:17:41;99426.09;;;33.06;100.00
8286;BME280;4181;43.416;24.598;2022-08-01T13:20:07;99425.53;;;32.77;100.00
8286;BME280;4181;43.416;24.598;2022-08-01T13:22:35;99429.53;;;32.80;100.00
8286;BME280;4181;43.416;24.598;2022-08-01T13:25:15;99417.31;;;32.97;100.00
8286;BME280;4181;43.416;24.598;2022-08-01T13:27:41;99429.66;;;33.13;100.00
8286;BME280;4181;43.416;24.598;2022-08-01T13:30:18;99424.91;;;33.41;100.00
8286;BME280;4181;43.416;24.598;2022-08-01T13:33:05;99404.56;;;33.56;100.00
8286;BME280;4181;43.416;24.598;2022-08-01T13:35:30;99411.13;;;33.50;100.00
8286;BME280;4181;43.416;24.598;2022-08-01T13:37:55;99410.38;;;33.38;100.00
8286;BME280;4181;43.416;24.598;2022-08-01T13:40:27;99409.69;;;33.31;100.00
8286;BME280;4181;43.416;24.598;2022-08-01T13:42:53;99399.81;;;33.09;100.00
8286;BME280;4181;43.416;24.598;2022-08-01T13:45:22;99418.72;;;33.15;100.00
8286;BME280;4181;43.416;24.598;2022-08-01T13:47:48;99399.00;;;33.08;100.00
8286;BME280;4181;43.416;24.598;2022-08-01T13:50:13;99406.59;;;33.15;100.00
8286;BME280;4181;43.416;24.598;2022-08-01T13:52:39;99387.56;;;33.22;100.00
8286;BME280;4181;43.416;24.598;2022-08-01T13:55:05;99395.22;;;33.22;100.00